createdAt,value
2018-07-28T00:00:14.495Z,23.63
2018-07-28T00:01:14.396Z,23.69
2018-07-28T00:02:14.381Z,23.63
2018-07-28T00:03:14.634Z,23.65
2018-07-28T00:04:14.638Z,23.68
2018-07-28T00:05:14.642Z,23.61
2018-07-28T00:06:14.651Z,23.61
2018-07-28T00:07:14.432Z,23.62
2018-07-28T00:08:14.397Z,23.56
2018-07-28T00:09:14.650Z,23.55
2018-07-28T00:10:14.660Z,23.59
2018-07-28T00:11:14.413Z,23.58
2018-07-28T00:12:14.683Z,23.51
2018-07-28T00:13:14.672Z,23.51
2018-07-28T00:14:14.420Z,23.55
2018-07-28T00:15:14.429Z,23.55
2018-07-28T00:16:14.684Z,23.43
2018-07-28T00:17:14.443Z,23.44
2018-07-28T00:18:14.429Z,23.41
2018-07-28T00:19:14.685Z,23.36
2018-07-28T00:20:14.699Z,23.41
2018-07-28T00:21:14.443Z,23.39
2018-07-28T00:22:14.703Z,23.36
2018-07-28T00:23:14.453Z,23.27
2018-07-28T00:24:14.719Z,23.32
2018-07-28T00:25:14.452Z,23.17
2018-07-28T00:26:14.734Z,23.31
2018-07-28T00:27:14.723Z,23.13
2018-07-28T00:28:14.211Z,23.2
2018-07-28T00:29:14.724Z,23.17
2018-07-28T00:30:14.464Z,23.2
2018-07-28T00:31:14.726Z,23.15
2018-07-28T00:32:14.486Z,23.15
2018-07-28T00:33:14.730Z,23.15
2018-07-28T00:34:14.734Z,23.18
2018-07-28T00:35:14.769Z,23.18
2018-07-28T00:36:14.749Z,23.12
2018-07-28T00:37:14.750Z,23.15
2018-07-28T00:38:14.741Z,23.15
2018-07-28T00:39:14.237Z,23.2
2018-07-28T00:40:14.759Z,23.18
2018-07-28T00:41:14.503Z,23.15
2018-07-28T00:42:14.501Z,23.2
2018-07-28T00:43:14.771Z,23.21
2018-07-28T00:44:14.765Z,23.17
2018-07-28T00:45:14.777Z,23.21
2018-07-28T00:46:14.517Z,23.17
2018-07-28T00:47:14.528Z,23.2
2018-07-28T00:48:14.783Z,23.25
2018-07-28T00:49:14.793Z,23.23
2018-07-28T00:50:14.539Z,23.21
2018-07-28T00:51:14.798Z,23.2
2018-07-28T00:52:14.541Z,23.2
2018-07-28T00:53:14.811Z,23.24
2018-07-28T00:54:14.830Z,23.23
2018-07-28T00:55:14.548Z,23.18
2018-07-28T00:56:14.815Z,23.25
2018-07-28T00:57:14.818Z,23.2
2018-07-28T00:58:14.813Z,23.18
2018-07-28T00:59:14.815Z,23.12
2018-07-28T01:00:14.382Z,23.23
2018-07-28T01:01:14.866Z,23.17
2018-07-28T01:02:14.827Z,23.15
2018-07-28T01:03:14.574Z,23.2
2018-07-28T01:04:14.572Z,23.15
2018-07-28T01:05:15.093Z,23.08
2018-07-28T01:06:14.594Z,23.12
2018-07-28T01:07:14.604Z,23.15
2018-07-28T01:08:14.846Z,23.15
2018-07-28T01:09:14.599Z,23.18
2018-07-28T01:10:14.392Z,23.1
2018-07-28T01:11:14.610Z,23.1
2018-07-28T01:12:14.879Z,23.06
2018-07-28T01:13:14.891Z,22.99
2018-07-28T01:14:14.367Z,23.15
2018-07-28T01:15:14.780Z,23.13
2018-07-28T01:16:14.887Z,22.99
2018-07-28T01:17:14.629Z,23.03
2018-07-28T01:18:14.633Z,22.96
2018-07-28T01:19:14.627Z,22.99
2018-07-28T01:20:14.558Z,23.03
2018-07-28T01:21:14.636Z,23
2018-07-28T01:22:14.638Z,23.02
2018-07-28T01:23:14.904Z,22.99
2018-07-28T01:24:14.655Z,22.98
2018-07-28T01:25:14.739Z,23.03
2018-07-28T01:26:14.397Z,22.98
2018-07-28T01:27:14.911Z,22.96
2018-07-28T01:28:14.656Z,23.03
2018-07-28T01:29:14.658Z,22.99
2018-07-28T01:30:14.786Z,22.99
2018-07-28T01:31:14.930Z,22.96
2018-07-28T01:32:14.664Z,22.96
2018-07-28T01:33:14.670Z,23.03
2018-07-28T01:34:14.926Z,22.94
2018-07-28T01:35:15.098Z,23
2018-07-28T01:36:14.964Z,23
2018-07-28T01:37:14.708Z,22.88
2018-07-28T01:38:14.435Z,22.94
2018-07-28T01:39:14.446Z,22.88
2018-07-28T01:40:14.776Z,22.88
2018-07-28T01:41:14.719Z,22.84
2018-07-28T01:42:14.701Z,22.87
2018-07-28T01:43:14.443Z,22.91
2018-07-28T01:44:14.707Z,22.88
2018-07-28T01:45:15.164Z,22.85
2018-07-28T01:46:14.713Z,22.81
2018-07-28T01:47:14.984Z,22.84
2018-07-28T01:48:14.718Z,22.81
2018-07-28T01:49:14.981Z,22.81
2018-07-28T01:50:14.845Z,22.75
2018-07-28T01:51:14.729Z,22.76
2018-07-28T01:52:14.751Z,22.76
2018-07-28T01:53:14.748Z,22.73
2018-07-28T01:54:14.749Z,22.7
2018-07-28T01:55:14.781Z,22.76
2018-07-28T01:56:14.487Z,22.84
2018-07-28T01:57:15.014Z,22.8
2018-07-28T01:58:14.754Z,22.8
2018-07-28T01:59:14.756Z,22.75
2018-07-28T02:00:14.918Z,22.69
2018-07-28T02:01:14.782Z,22.76
2018-07-28T02:02:14.773Z,22.81
2018-07-28T02:03:14.766Z,22.72
2018-07-28T02:04:15.030Z,22.72
2018-07-28T02:05:14.924Z,22.75
2018-07-28T02:06:14.794Z,22.75
2018-07-28T02:07:15.035Z,22.73
2018-07-28T02:08:14.793Z,22.63
2018-07-28T02:09:15.040Z,22.72
2018-07-28T02:10:14.909Z,22.65
2018-07-28T02:11:14.787Z,22.66
2018-07-28T02:12:15.051Z,22.65
2018-07-28T02:13:14.806Z,22.65
2018-07-28T02:14:14.805Z,22.63
2018-07-28T02:15:15.133Z,22.65
2018-07-28T02:16:15.061Z,22.68
2018-07-28T02:17:14.802Z,22.65
2018-07-28T02:18:14.815Z,22.62
2018-07-28T02:19:15.095Z,22.62
2018-07-28T02:20:15.136Z,22.63
2018-07-28T02:21:14.830Z,22.57
2018-07-28T02:22:14.579Z,22.59
2018-07-28T02:23:14.824Z,22.57
2018-07-28T02:24:15.102Z,22.59
2018-07-28T02:25:15.580Z,22.57
2018-07-28T02:26:14.870Z,22.53
2018-07-28T02:27:14.839Z,22.51
2018-07-28T02:28:15.095Z,22.53
2018-07-28T02:29:15.121Z,22.57
2018-07-28T02:30:14.855Z,22.53
2018-07-28T02:31:14.867Z,22.57
2018-07-28T02:32:14.597Z,22.62
2018-07-28T02:33:14.856Z,22.55
2018-07-28T02:34:14.867Z,22.54
2018-07-28T02:35:15.230Z,22.53
2018-07-28T02:36:15.127Z,22.54
2018-07-28T02:37:14.866Z,22.57
2018-07-28T02:38:14.871Z,22.6
2018-07-28T02:39:14.866Z,22.59
2018-07-28T02:40:14.986Z,22.53
2018-07-28T02:41:14.877Z,22.54
2018-07-28T02:42:14.888Z,22.57
2018-07-28T02:43:15.148Z,22.62
2018-07-28T02:44:15.149Z,22.55
2018-07-28T02:45:15.327Z,22.54
2018-07-28T02:46:14.632Z,22.54
2018-07-28T02:47:15.153Z,22.57
2018-07-28T02:48:15.167Z,22.6
2018-07-28T02:49:14.898Z,22.55
2018-07-28T02:50:15.386Z,22.53
2018-07-28T02:51:15.160Z,22.6
2018-07-28T02:52:14.928Z,22.62
2018-07-28T02:53:15.177Z,22.62
2018-07-28T02:54:15.177Z,22.57
2018-07-28T02:55:14.732Z,22.59
2018-07-28T02:56:14.923Z,22.59
2018-07-28T02:57:14.946Z,22.57
2018-07-28T02:58:14.934Z,22.44
2018-07-28T02:59:15.185Z,22.5
2018-07-28T03:00:15.598Z,22.43
2018-07-28T03:01:15.207Z,22.44
2018-07-28T03:02:15.202Z,22.35
2018-07-28T03:03:15.204Z,22.3
2018-07-28T03:04:15.209Z,22.33
2018-07-28T03:05:15.011Z,22.28
2018-07-28T03:06:15.204Z,22.32
2018-07-28T03:07:14.955Z,22.28
2018-07-28T03:08:14.974Z,22.28
2018-07-28T03:09:14.952Z,22.28
2018-07-28T03:10:15.481Z,22.25
2018-07-28T03:11:15.210Z,22.28
2018-07-28T03:12:14.971Z,22.17
2018-07-28T03:13:15.236Z,22.14
2018-07-28T03:14:15.230Z,22.22
2018-07-28T03:15:15.247Z,22.17
2018-07-28T03:16:14.993Z,22.18
2018-07-28T03:17:15.244Z,22.11
2018-07-28T03:18:15.247Z,22.18
2018-07-28T03:19:15.244Z,22.14
2018-07-28T03:20:15.247Z,22.22
2018-07-28T03:21:15.256Z,22.25
2018-07-28T03:22:14.998Z,22.29
2018-07-28T03:23:15.259Z,22.26
2018-07-28T03:24:15.283Z,22.25
2018-07-28T03:25:15.387Z,22.28
2018-07-28T03:26:15.306Z,22.28
2018-07-28T03:27:15.022Z,22.26
2018-07-28T03:28:14.751Z,22.25
2018-07-28T03:29:15.268Z,22.18
2018-07-28T03:30:15.337Z,22.18
2018-07-28T03:31:15.266Z,22.17
2018-07-28T03:32:15.342Z,22.18
2018-07-28T03:33:15.067Z,22.15
2018-07-28T03:34:15.040Z,22.11
2018-07-28T03:35:15.220Z,22.1
2018-07-28T03:36:15.278Z,22.11
2018-07-28T03:37:15.292Z,22.1
2018-07-28T03:38:14.787Z,22.07
2018-07-28T03:39:15.056Z,22.02
2018-07-28T03:40:14.860Z,22.02
2018-07-28T03:41:15.057Z,22.02
2018-07-28T03:42:15.057Z,21.92
2018-07-28T03:43:15.053Z,21.91
2018-07-28T03:44:14.796Z,21.98
2018-07-28T03:45:15.321Z,21.99
2018-07-28T03:46:15.306Z,22
2018-07-28T03:47:15.060Z,22.07
2018-07-28T03:48:15.314Z,22
2018-07-28T03:49:15.482Z,21.99
2018-07-28T03:50:15.489Z,22.06
2018-07-28T03:51:15.074Z,22.06
2018-07-28T03:52:15.325Z,22.08
2018-07-28T03:53:15.127Z,22.11
2018-07-28T03:54:15.131Z,22.13
2018-07-28T03:55:15.094Z,22.18
2018-07-28T03:56:15.069Z,22.22
2018-07-28T03:57:15.081Z,22.15
2018-07-28T03:58:15.344Z,22.2
2018-07-28T03:59:15.354Z,22.08
2018-07-28T04:00:15.247Z,22.17
2018-07-28T04:01:14.827Z,22.13
2018-07-28T04:02:15.090Z,22.11
2018-07-28T04:03:15.430Z,22.15
2018-07-28T04:04:15.654Z,22.15
2018-07-28T04:05:15.188Z,22.07
2018-07-28T04:06:15.124Z,22.13
2018-07-28T04:07:15.117Z,22.11
2018-07-28T04:08:15.384Z,22.13
2018-07-28T04:09:15.135Z,22.07
2018-07-28T04:10:14.858Z,22.13
2018-07-28T04:11:15.379Z,22.1
2018-07-28T04:12:15.115Z,22.04
2018-07-28T04:13:15.127Z,22.13
2018-07-28T04:14:15.399Z,22.1
2018-07-28T04:15:15.288Z,22.14
2018-07-28T04:16:15.380Z,22.13
2018-07-28T04:17:15.380Z,22.15
2018-07-28T04:18:15.386Z,22.11
2018-07-28T04:19:14.879Z,22.17
2018-07-28T04:20:15.406Z,22.18
2018-07-28T04:21:15.147Z,22.23
2018-07-28T04:22:15.138Z,22.23
2018-07-28T04:23:14.888Z,22.23
2018-07-28T04:24:14.891Z,22.25
2018-07-28T04:25:15.292Z,22.28
2018-07-28T04:26:15.432Z,22.39
2018-07-28T04:27:15.171Z,22.28
2018-07-28T04:28:15.160Z,22.29
2018-07-28T04:29:15.169Z,22.36
2018-07-28T04:30:15.193Z,22.51
2018-07-28T04:31:15.160Z,22.63
2018-07-28T04:32:15.187Z,22.8
2018-07-28T04:33:14.914Z,23.02
2018-07-28T04:34:15.438Z,23.15
2018-07-28T04:35:15.517Z,23.31
2018-07-28T04:36:15.171Z,23.39
2018-07-28T04:37:15.632Z,23.56
2018-07-28T04:38:15.481Z,23.76
2018-07-28T04:39:15.484Z,23.87
2018-07-28T04:40:15.660Z,24.03
2018-07-28T04:41:15.453Z,24.14
2018-07-28T04:42:15.456Z,24.4
2018-07-28T04:43:15.469Z,24.65
2018-07-28T04:44:15.216Z,24.95
2018-07-28T04:45:15.046Z,25.03
2018-07-28T04:46:14.964Z,25.1
2018-07-28T04:47:15.226Z,25.26
2018-07-28T04:48:15.229Z,25.47
2018-07-28T04:49:15.480Z,25.54
2018-07-28T04:50:15.039Z,25.7
2018-07-28T04:51:15.498Z,25.69
2018-07-28T04:52:14.985Z,25.78
2018-07-28T04:53:15.518Z,25.91
2018-07-28T04:54:15.254Z,25.99
2018-07-28T04:55:15.215Z,26.18
2018-07-28T04:56:15.265Z,26.29
2018-07-28T04:57:15.265Z,26.43
2018-07-28T04:58:15.018Z,26.51
2018-07-28T04:59:15.273Z,26.53
2018-07-28T05:00:15.539Z,26.6
2018-07-28T05:01:15.547Z,26.7
2018-07-28T05:02:15.036Z,26.59
2018-07-28T05:03:15.290Z,26.48
2018-07-28T05:04:15.308Z,26.43
2018-07-28T05:05:15.182Z,26.4
2018-07-28T05:06:15.325Z,26.51
2018-07-28T05:07:15.424Z,26.66
2018-07-28T05:08:15.326Z,26.8
2018-07-28T05:09:15.639Z,26.99
2018-07-28T05:10:15.824Z,27.03
2018-07-28T05:11:15.377Z,27.11
2018-07-28T05:12:15.670Z,27.32
2018-07-28T05:13:15.359Z,27.52
2018-07-28T05:14:15.626Z,27.54
2018-07-28T05:15:15.626Z,27.71
2018-07-28T05:16:15.383Z,27.75
2018-07-28T05:17:15.394Z,27.82
2018-07-28T05:18:15.385Z,28.1
2018-07-28T05:19:15.411Z,28.17
2018-07-28T05:20:15.156Z,28.27
2018-07-28T05:21:15.158Z,28.32
2018-07-28T05:22:15.166Z,28.26
2018-07-28T05:23:15.422Z,28.29
2018-07-28T05:24:15.700Z,28.25
2018-07-28T05:25:15.437Z,28.39
2018-07-28T05:26:15.177Z,28.27
2018-07-28T05:27:15.457Z,28.35
2018-07-28T05:28:15.453Z,28.52
2018-07-28T05:29:15.202Z,28.47
2018-07-28T05:30:15.818Z,28.42
2018-07-28T05:31:15.728Z,28.57
2018-07-28T05:32:15.489Z,28.67
2018-07-28T05:33:15.490Z,28.89
2018-07-28T05:34:15.775Z,28.98
2018-07-28T05:35:15.627Z,29.16
2018-07-28T05:36:15.788Z,29.23
2018-07-28T05:37:16.147Z,29.29
2018-07-28T05:38:15.520Z,29.27
2018-07-28T05:39:15.530Z,29.02
2018-07-28T05:40:15.965Z,28.57
2018-07-28T05:41:15.282Z,28.2
2018-07-28T05:42:15.287Z,27.89
2018-07-28T05:43:15.814Z,27.47
2018-07-28T05:44:15.564Z,26.97
2018-07-28T05:45:15.336Z,26.68
2018-07-28T05:46:15.577Z,26.48
2018-07-28T05:47:15.834Z,26.25
2018-07-28T05:48:15.845Z,25.93
2018-07-28T05:49:15.860Z,25.66
2018-07-28T05:50:16.172Z,25.63
2018-07-28T05:51:15.869Z,25.65
2018-07-28T05:52:15.360Z,25.77
2018-07-28T05:53:15.621Z,25.9
2018-07-28T05:54:15.878Z,26.06
2018-07-28T05:55:15.884Z,26.44
2018-07-28T05:56:15.633Z,26.84
2018-07-28T05:57:15.647Z,27.32
2018-07-28T05:58:15.650Z,27.59
2018-07-28T05:59:15.920Z,28.01
2018-07-28T06:00:15.678Z,28.37
2018-07-28T06:01:15.924Z,28.75
2018-07-28T06:02:16.110Z,28.91
2018-07-28T06:03:15.681Z,28.96
2018-07-28T06:04:15.682Z,29.22
2018-07-28T06:05:15.704Z,29.5
2018-07-28T06:06:15.709Z,29.75
2018-07-28T06:07:15.969Z,29.94
2018-07-28T06:08:15.470Z,30.12
2018-07-28T06:09:15.731Z,30.02
2018-07-28T06:10:15.742Z,30.13
2018-07-28T06:11:15.738Z,30.16
2018-07-28T06:12:15.520Z,30.37
2018-07-28T06:13:16.005Z,30.44
2018-07-28T06:14:15.909Z,30.62
2018-07-28T06:15:15.777Z,30.75
2018-07-28T06:16:16.045Z,30.88
2018-07-28T06:17:15.520Z,30.87
2018-07-28T06:18:16.049Z,31
2018-07-28T06:19:15.802Z,31.07
2018-07-28T06:20:16.134Z,31.12
2018-07-28T06:21:16.063Z,31.1
2018-07-28T06:22:16.075Z,31.05
2018-07-28T06:23:15.857Z,31.09
2018-07-28T06:24:16.118Z,31.28
2018-07-28T06:25:16.098Z,31.29
2018-07-28T06:26:16.107Z,31.47
2018-07-28T06:27:15.597Z,31.46
2018-07-28T06:28:16.132Z,31.49
2018-07-28T06:29:16.152Z,31.69
2018-07-28T06:30:15.877Z,31.62
2018-07-28T06:31:15.892Z,31.78
2018-07-28T06:32:16.166Z,31.9
2018-07-28T06:33:15.922Z,31.69
2018-07-28T06:34:15.957Z,31.49
2018-07-28T06:35:15.937Z,31.47
2018-07-28T06:36:15.667Z,31.42
2018-07-28T06:37:16.217Z,31.66
2018-07-28T06:38:16.236Z,31.74
2018-07-28T06:39:15.955Z,31.81
2018-07-28T06:40:15.976Z,31.78
2018-07-28T06:41:15.978Z,31.69
2018-07-28T06:42:16.237Z,31.61
2018-07-28T06:43:15.988Z,31.36
2018-07-28T06:44:16.266Z,31.51
2018-07-28T06:45:16.267Z,31.55
2018-07-28T06:46:15.764Z,31.39
2018-07-28T06:47:15.814Z,31.25
2018-07-28T06:48:16.037Z,31.17
2018-07-28T06:49:16.052Z,31.18
2018-07-28T06:50:16.299Z,31.58
2018-07-28T06:51:16.053Z,31.94
2018-07-28T06:52:15.819Z,32.22
2018-07-28T06:53:16.355Z,32.55
2018-07-28T06:54:15.834Z,32.95
2018-07-28T06:55:16.088Z,33.24
2018-07-28T06:56:16.097Z,33.52
2018-07-28T06:57:16.353Z,33.69
2018-07-28T06:58:16.380Z,33.84
2018-07-28T06:59:16.384Z,34.21
2018-07-28T07:00:15.882Z,34.32
2018-07-28T07:01:16.406Z,34.05
2018-07-28T07:02:16.407Z,33.67
2018-07-28T07:03:16.149Z,33.19
2018-07-28T07:04:15.902Z,32.74
2018-07-28T07:05:16.432Z,32.18
2018-07-28T07:06:16.181Z,31.71
2018-07-28T07:07:16.463Z,31.28
2018-07-28T07:08:16.459Z,30.91
2018-07-28T07:09:15.954Z,30.62
2018-07-28T07:10:16.477Z,30.31
2018-07-28T07:11:15.966Z,30.02
2018-07-28T07:12:16.489Z,29.76
2018-07-28T07:13:16.237Z,29.51
2018-07-28T07:14:16.248Z,29.32
2018-07-28T07:15:16.532Z,29.02
2018-07-28T07:16:16.534Z,28.85
2018-07-28T07:17:16.536Z,28.7
2018-07-28T07:18:16.549Z,28.54
2018-07-28T07:19:16.293Z,28.47
2018-07-28T07:20:16.296Z,28.45
2018-07-28T07:21:16.041Z,28.35
2018-07-28T07:22:16.303Z,28.27
2018-07-28T07:23:16.559Z,28.12
2018-07-28T07:24:16.581Z,28.04
2018-07-28T07:25:16.575Z,27.98
2018-07-28T07:26:16.580Z,28.05
2018-07-28T07:27:16.603Z,28.1
2018-07-28T07:28:16.600Z,28.15
2018-07-28T07:29:16.360Z,28.12
2018-07-28T07:30:16.372Z,28.19
2018-07-28T07:31:16.357Z,28.2
2018-07-28T07:32:16.119Z,28.22
2018-07-28T07:33:16.384Z,28.27
2018-07-28T07:34:16.636Z,28.23
2018-07-28T07:35:16.655Z,28.45
2018-07-28T07:36:16.839Z,28.47
2018-07-28T07:37:16.656Z,28.63
2018-07-28T07:38:16.657Z,28.7
2018-07-28T07:39:16.676Z,28.69
2018-07-28T07:40:16.415Z,28.7
2018-07-28T07:41:16.417Z,28.75
2018-07-28T07:42:16.687Z,28.84
2018-07-28T07:43:16.694Z,28.86
2018-07-28T07:44:16.690Z,29.02
2018-07-28T07:45:16.690Z,28.98
2018-07-28T07:46:16.700Z,28.93
2018-07-28T07:47:17.018Z,28.82
2018-07-28T07:48:16.477Z,28.78
2018-07-28T07:49:17.281Z,28.72
2018-07-28T07:50:16.471Z,28.74
2018-07-28T07:51:16.742Z,28.78
2018-07-28T07:52:16.742Z,28.79
2018-07-28T07:53:16.235Z,28.78
2018-07-28T07:54:16.494Z,28.72
2018-07-28T07:55:16.809Z,28.66
2018-07-28T07:56:16.770Z,28.64
2018-07-28T07:57:16.506Z,28.54
2018-07-28T07:58:16.509Z,28.39
2018-07-28T07:59:16.778Z,28.49
2018-07-28T08:00:16.536Z,28.45
2018-07-28T08:01:16.816Z,28.26
2018-07-28T08:02:16.796Z,28.17
2018-07-28T08:03:16.817Z,28.11
2018-07-28T08:04:18.415Z,28.08
2018-07-28T08:05:16.817Z,28.11
2018-07-28T08:06:16.845Z,28.05
2018-07-28T08:07:16.825Z,28.05
2018-07-28T08:08:16.839Z,28.1
2018-07-28T08:09:16.832Z,28.04
2018-07-28T08:10:16.849Z,28.1
2018-07-28T08:11:16.588Z,27.98
2018-07-28T08:12:16.603Z,27.8
2018-07-28T08:13:16.384Z,27.9
2018-07-28T08:14:16.893Z,27.89
2018-07-28T08:15:16.622Z,27.86
2018-07-28T08:16:16.628Z,27.86
2018-07-28T08:17:16.895Z,27.83
2018-07-28T08:18:16.882Z,27.83
2018-07-28T08:19:16.891Z,27.87
2018-07-28T08:20:16.403Z,27.86
2018-07-28T08:21:16.903Z,27.73
2018-07-28T08:22:16.664Z,27.77
2018-07-28T08:23:16.667Z,27.6
2018-07-28T08:24:16.941Z,27.54
2018-07-28T08:25:16.671Z,27.4
2018-07-28T08:26:16.455Z,27.32
2018-07-28T08:27:16.688Z,27.26
2018-07-28T08:28:16.432Z,27.1
2018-07-28T08:29:16.957Z,27.1
2018-07-28T08:30:16.692Z,27.07
2018-07-28T08:31:16.969Z,27.02
2018-07-28T08:32:16.983Z,26.95
2018-07-28T08:33:17.019Z,26.93
2018-07-28T08:34:16.459Z,26.9
2018-07-28T08:35:16.459Z,26.95
2018-07-28T08:36:16.998Z,26.9
2018-07-28T08:37:16.733Z,26.73
2018-07-28T08:38:17.010Z,26.74
2018-07-28T08:39:16.997Z,26.7
2018-07-28T08:40:17.029Z,26.77
2018-07-28T08:41:16.758Z,26.73
2018-07-28T08:42:16.756Z,26.74
2018-07-28T08:43:17.027Z,26.73
2018-07-28T08:44:17.033Z,26.74
2018-07-28T08:45:16.759Z,26.74
2018-07-28T08:46:16.775Z,26.66
2018-07-28T08:47:17.045Z,26.73
2018-07-28T08:48:17.048Z,26.73
2018-07-28T08:49:17.527Z,26.78
2018-07-28T08:50:17.056Z,26.83
2018-07-28T08:51:16.798Z,26.96
2018-07-28T08:52:17.074Z,26.95
2018-07-28T08:53:17.051Z,26.92
2018-07-28T08:54:17.082Z,26.84
2018-07-28T08:55:16.814Z,26.8
2018-07-28T08:56:17.080Z,26.89
2018-07-28T08:57:16.580Z,26.95
2018-07-28T08:58:17.097Z,26.99
2018-07-28T08:59:16.853Z,26.89
2018-07-28T09:00:16.844Z,27
2018-07-28T09:01:17.104Z,26.99
2018-07-28T09:02:16.848Z,27.1
2018-07-28T09:03:17.120Z,27.21
2018-07-28T09:04:17.118Z,27.35
2018-07-28T09:05:16.862Z,27.36
2018-07-28T09:06:16.988Z,27.47
2018-07-28T09:07:16.873Z,27.6
2018-07-28T09:08:16.876Z,27.82
2018-07-28T09:09:17.142Z,27.77
2018-07-28T09:10:16.894Z,27.73
2018-07-28T09:11:17.171Z,27.77
2018-07-28T09:12:16.977Z,27.8
2018-07-28T09:13:16.909Z,27.74
2018-07-28T09:14:17.171Z,27.8
2018-07-28T09:15:16.930Z,27.68
2018-07-28T09:16:17.188Z,27.63
2018-07-28T09:17:17.191Z,27.58
2018-07-28T09:18:16.937Z,27.51
2018-07-28T09:19:17.212Z,27.49
2018-07-28T09:20:16.947Z,27.59
2018-07-28T09:21:16.969Z,27.7
2018-07-28T09:22:16.741Z,27.78
2018-07-28T09:23:17.457Z,28.05
2018-07-28T09:24:17.013Z,28.23
2018-07-28T09:25:16.712Z,28.33
2018-07-28T09:26:17.238Z,28.52
2018-07-28T09:27:16.981Z,28.74
2018-07-28T09:28:16.991Z,28.78
2018-07-28T09:29:16.744Z,28.98
2018-07-28T09:30:17.581Z,29.07
2018-07-28T09:31:17.013Z,29.14
2018-07-28T09:32:17.026Z,29.07
2018-07-28T09:33:17.025Z,29.08
2018-07-28T09:34:16.768Z,29.1
2018-07-28T09:35:17.039Z,29.08
2018-07-28T09:36:17.062Z,29.05
2018-07-28T09:37:17.061Z,29.08
2018-07-28T09:38:17.362Z,29.08
2018-07-28T09:39:17.335Z,29.14
2018-07-28T09:40:16.805Z,29.23
2018-07-28T09:41:17.111Z,29.27
2018-07-28T09:42:17.076Z,29.32
2018-07-28T09:43:17.079Z,29.31
2018-07-28T09:44:17.082Z,29.27
2018-07-28T09:45:16.826Z,29.24
2018-07-28T09:46:17.166Z,29.2
2018-07-28T09:47:17.110Z,29.16
2018-07-28T09:48:17.125Z,29.14
2018-07-28T09:49:17.368Z,29.08
2018-07-28T09:50:17.382Z,29.1
2018-07-28T09:51:17.140Z,29.04
2018-07-28T09:52:17.143Z,29.08
2018-07-28T09:53:17.401Z,29.04
2018-07-28T09:54:17.428Z,29.05
2018-07-28T09:55:17.470Z,29.07
2018-07-28T09:56:17.376Z,29.12
2018-07-28T09:57:17.434Z,29.2
2018-07-28T09:58:17.186Z,29.17
2018-07-28T09:59:17.459Z,29.24
2018-07-28T10:00:17.178Z,29.31
2018-07-28T10:01:17.445Z,29.32
2018-07-28T10:02:17.439Z,29.42
2018-07-28T10:03:17.456Z,29.51
2018-07-28T10:04:16.944Z,29.6
2018-07-28T10:05:18.318Z,29.66
2018-07-28T10:06:17.473Z,29.61
2018-07-28T10:07:17.296Z,29.73
2018-07-28T10:08:17.282Z,29.79
2018-07-28T10:09:17.272Z,29.76
2018-07-28T10:10:17.499Z,29.86
2018-07-28T10:11:17.003Z,30.06
2018-07-28T10:12:17.252Z,30.19
2018-07-28T10:13:17.000Z,30.39
2018-07-28T10:14:17.270Z,30.44
2018-07-28T10:15:17.853Z,30.48
2018-07-28T10:16:17.719Z,30.46
2018-07-28T10:17:17.545Z,30.5
2018-07-28T10:18:17.301Z,30.55
2018-07-28T10:19:17.560Z,30.43
2018-07-28T10:20:17.567Z,30.51
2018-07-28T10:21:17.067Z,30.46
2018-07-28T10:22:17.572Z,30.54
2018-07-28T10:23:17.600Z,30.46
2018-07-28T10:24:17.351Z,30.43
2018-07-28T10:25:17.609Z,30.34
2018-07-28T10:26:17.084Z,30.25
2018-07-28T10:27:17.379Z,30.34
2018-07-28T10:28:17.357Z,30.47
2018-07-28T10:29:17.657Z,30.48
2018-07-28T10:30:17.669Z,30.51
2018-07-28T10:31:17.659Z,30.59
2018-07-28T10:32:17.756Z,30.78
2018-07-28T10:33:17.657Z,30.9
2018-07-28T10:34:17.651Z,30.91
2018-07-28T10:35:18.209Z,30.91
2018-07-28T10:36:17.710Z,31.05
2018-07-28T10:37:17.669Z,31.09
2018-07-28T10:38:17.416Z,31.06
2018-07-28T10:39:17.435Z,31.21
2018-07-28T10:40:17.706Z,31.17
2018-07-28T10:41:17.735Z,31.25
2018-07-28T10:42:17.451Z,31.29
2018-07-28T10:43:17.713Z,31.44
2018-07-28T10:44:17.460Z,31.47
2018-07-28T10:45:17.215Z,31.56
2018-07-28T10:46:17.482Z,31.62
2018-07-28T10:47:17.484Z,31.58
2018-07-28T10:48:17.753Z,31.43
2018-07-28T10:49:17.761Z,31.33
2018-07-28T10:50:17.263Z,31.2
2018-07-28T10:51:17.763Z,31.2
2018-07-28T10:52:17.775Z,31.21
2018-07-28T10:53:17.800Z,31.21
2018-07-28T10:54:17.785Z,31.15
2018-07-28T10:55:17.794Z,31.14
2018-07-28T10:56:17.800Z,31.22
2018-07-28T10:57:17.819Z,31.18
2018-07-28T10:58:17.907Z,31.15
2018-07-28T10:59:17.820Z,31.34
2018-07-28T11:00:18.084Z,31.34
2018-07-28T11:01:17.618Z,31.39
2018-07-28T11:02:17.597Z,31.44
2018-07-28T11:03:17.607Z,31.51
2018-07-28T11:04:17.600Z,31.55
2018-07-28T11:05:17.865Z,31.42
2018-07-28T11:06:17.639Z,31.44
2018-07-28T11:07:17.896Z,31.34
2018-07-28T11:08:17.628Z,31.31
2018-07-28T11:09:17.852Z,31.33
2018-07-28T11:10:17.904Z,31.29
2018-07-28T11:11:17.900Z,31.36
2018-07-28T11:12:17.919Z,31.46
2018-07-28T11:13:17.713Z,31.58
2018-07-28T11:14:17.405Z,31.46
2018-07-28T11:15:17.929Z,31.47
2018-07-28T11:16:17.935Z,31.56
2018-07-28T11:17:17.703Z,31.49
2018-07-28T11:18:17.710Z,31.59
2018-07-28T11:19:17.957Z,31.59
2018-07-28T11:20:17.956Z,31.58
2018-07-28T11:21:17.726Z,31.61
2018-07-28T11:22:17.982Z,31.54
2018-07-28T11:23:17.492Z,31.61
2018-07-28T11:24:18.015Z,31.69
2018-07-28T11:25:18.006Z,31.84
2018-07-28T11:26:17.938Z,31.94
2018-07-28T11:27:17.769Z,32.01
2018-07-28T11:28:18.025Z,31.9
2018-07-28T11:29:17.776Z,31.96
2018-07-28T11:30:17.551Z,32.22
2018-07-28T11:31:18.053Z,32.3
2018-07-28T11:32:18.050Z,32.4
2018-07-28T11:33:18.115Z,32.41
2018-07-28T11:34:18.064Z,32.49
2018-07-28T11:35:17.609Z,32.59
2018-07-28T11:36:18.082Z,32.56
2018-07-28T11:37:18.092Z,32.63
2018-07-28T11:38:17.824Z,32.58
2018-07-28T11:39:18.092Z,32.71
2018-07-28T11:40:17.844Z,32.74
2018-07-28T11:41:18.113Z,32.74
2018-07-28T11:42:17.855Z,32.82
2018-07-28T11:43:18.124Z,33.04
2018-07-28T11:44:17.887Z,33.08
2018-07-28T11:45:17.975Z,33.36
2018-07-28T11:46:17.924Z,33.39
2018-07-28T11:47:17.911Z,33.55
2018-07-28T11:48:18.174Z,33.67
2018-07-28T11:49:17.934Z,33.61
2018-07-28T11:50:17.918Z,33.52
2018-07-28T11:51:18.019Z,33.5
2018-07-28T11:52:17.933Z,33.46
2018-07-28T11:53:17.969Z,33.49
2018-07-28T11:54:17.723Z,33.52
2018-07-28T11:55:18.215Z,33.47
2018-07-28T11:56:18.225Z,33.4
2018-07-28T11:57:18.280Z,33.43
2018-07-28T11:58:17.837Z,33.39
2018-07-28T11:59:18.256Z,33.39
2018-07-28T12:00:18.279Z,33.45
2018-07-28T12:01:18.004Z,33.42
2018-07-28T12:02:17.743Z,33.37
2018-07-28T12:03:17.771Z,33.34
2018-07-28T12:04:17.788Z,33.42
2018-07-28T12:05:18.041Z,33.47
2018-07-28T12:06:18.041Z,33.52
2018-07-28T12:07:17.814Z,33.58
2018-07-28T12:08:18.075Z,33.55
2018-07-28T12:09:18.344Z,33.65
2018-07-28T12:10:17.815Z,33.76
2018-07-28T12:11:18.120Z,33.86
2018-07-28T12:12:18.088Z,33.73
2018-07-28T12:13:18.346Z,33.61
2018-07-28T12:14:18.365Z,33.53
2018-07-28T12:15:17.857Z,33.47
2018-07-28T12:16:18.117Z,33.31
2018-07-28T12:17:18.393Z,33.34
2018-07-28T12:18:18.272Z,33.3
2018-07-28T12:19:18.141Z,33.47
2018-07-28T12:20:18.156Z,33.55
2018-07-28T12:21:18.479Z,33.68
2018-07-28T12:22:18.439Z,33.71
2018-07-28T12:23:18.180Z,33.83
2018-07-28T12:24:17.920Z,33.83
2018-07-28T12:25:18.447Z,33.87
2018-07-28T12:26:18.216Z,33.81
2018-07-28T12:27:18.230Z,33.99
2018-07-28T12:28:18.471Z,34.1
2018-07-28T12:29:18.250Z,34.23
2018-07-28T12:30:18.227Z,34.05
2018-07-28T12:31:18.502Z,34.03
2018-07-28T12:32:18.241Z,34.01
2018-07-28T12:33:17.995Z,33.87
2018-07-28T12:34:18.284Z,34.08
2018-07-28T12:35:18.012Z,34.1
2018-07-28T12:36:18.548Z,34.2
2018-07-28T12:37:18.287Z,34.32
2018-07-28T12:38:18.555Z,34.33
2018-07-28T12:39:18.300Z,34.2
2018-07-28T12:40:18.559Z,34.03
2018-07-28T12:41:18.309Z,33.84
2018-07-28T12:42:18.579Z,33.55
2018-07-28T12:43:18.067Z,33.2
2018-07-28T12:44:18.591Z,32.82
2018-07-28T12:45:18.346Z,32.67
2018-07-28T12:46:18.111Z,32.56
2018-07-28T12:47:18.398Z,32.4
2018-07-28T12:48:18.368Z,32.37
2018-07-28T12:49:18.429Z,32.41
2018-07-28T12:50:18.373Z,32.3
2018-07-28T12:51:18.632Z,32.22
2018-07-28T12:52:18.652Z,32.19
2018-07-28T12:53:18.402Z,32.12
2018-07-28T12:54:18.675Z,32.07
2018-07-28T12:55:18.906Z,31.96
2018-07-28T12:56:18.655Z,31.8